createdAt,value
2022-10-24T00:00:28.967Z,9.73
2022-10-24T00:01:30.725Z,8.00
2022-10-24T00:02:32.560Z,8.02
2022-10-24T00:03:34.283Z,8.40
2022-10-24T00:04:37.510Z,6.55
2022-10-24T00:05:47.016Z,9.95
2022-10-24T00:06:48.767Z,8.65
2022-10-24T00:07:51.018Z,8.52
2022-10-24T00:08:52.833Z,8.43
2022-10-24T00:09:54.516Z,9.93
2022-10-24T00:10:56.203Z,8.50
2022-10-24T00:11:57.939Z,6.90
2022-10-24T00:12:59.721Z,9.10
2022-10-24T00:14:01.520Z,5.32
2022-10-24T00:15:05.043Z,6.57
2022-10-24T00:16:07.442Z,7.03
2022-10-24T00:17:09.285Z,5.00
2022-10-24T00:18:11.000Z,4.18
2022-10-24T00:19:12.689Z,3.55
2022-10-24T00:20:14.408Z,4.20
2022-10-24T00:21:16.124Z,5.13
2022-10-24T00:22:17.805Z,5.68
2022-10-24T00:23:19.531Z,5.10
2022-10-24T00:24:21.370Z,9.02
2022-10-24T00:25:23.191Z,6.05
2022-10-24T00:26:24.895Z,4.60
2022-10-24T00:27:26.620Z,2.80
2022-10-24T00:28:29.254Z,5.25
2022-10-24T00:29:31.085Z,4.82
2022-10-24T00:30:32.864Z,3.95
2022-10-24T00:31:34.809Z,4.70
2022-10-24T00:32:36.543Z,4.75
2022-10-24T00:33:38.282Z,4.93
2022-10-24T00:34:40.429Z,3.63
2022-10-24T00:35:42.614Z,5.53
2022-10-24T00:36:44.505Z,6.35
2022-10-24T00:37:46.447Z,7.68
2022-10-24T00:38:49.039Z,6.70
2022-10-24T00:39:53.576Z,5.35
2022-10-24T00:40:55.296Z,6.03
2022-10-24T00:41:59.404Z,6.50
2022-10-24T00:43:01.127Z,4.90
2022-10-24T00:44:26.080Z,4.85
2022-10-24T00:45:41.379Z,5.72
2022-10-24T00:46:50.343Z,5.78
2022-10-24T00:47:52.099Z,6.97
2022-10-24T00:48:55.299Z,5.85
2022-10-24T00:50:13.451Z,6.53
2022-10-24T00:51:31.588Z,7.93
2022-10-24T00:52:38.497Z,6.13
2022-10-24T00:53:45.872Z,5.93
2022-10-24T00:54:48.205Z,2.78
2022-10-24T00:55:54.285Z,4.30
2022-10-24T00:57:15.515Z,3.65
2022-10-24T00:58:18.384Z,4.55
2022-10-24T00:59:21.045Z,6.82
2022-10-24T01:00:26.631Z,6.93
2022-10-24T01:01:28.646Z,6.50
2022-10-24T01:02:30.388Z,5.32
2022-10-24T01:03:32.964Z,4.45
2022-10-24T01:04:34.713Z,6.03
2022-10-24T01:06:10.220Z,4.82
2022-10-24T01:07:14.965Z,5.97
2022-10-24T01:08:34.086Z,8.93
2022-10-24T01:10:07.894Z,4.80
2022-10-24T01:11:37.516Z,6.30
2022-10-24T01:12:45.254Z,4.43
2022-10-24T01:14:08.274Z,4.13
2022-10-24T01:15:30.909Z,7.90
2022-10-24T01:16:50.703Z,5.28
2022-10-24T01:18:20.332Z,4.90
2022-10-24T01:19:49.941Z,4.88
2022-10-24T01:21:03.533Z,5.03
2022-10-24T01:22:21.414Z,4.15
2022-10-24T01:23:40.398Z,3.90
2022-10-24T01:25:06.692Z,4.07
2022-10-24T01:26:20.240Z,4.30
2022-10-24T01:27:39.373Z,5.97
2022-10-24T01:29:05.447Z,6.68
2022-10-24T01:30:09.645Z,6.70
2022-10-24T01:31:50.277Z,6.68
2022-10-24T01:33:00.964Z,5.47
2022-10-24T01:34:10.288Z,9.40
2022-10-24T01:35:36.601Z,5.85
2022-10-24T01:37:02.993Z,6.43
2022-10-24T01:38:33.712Z,4.05
2022-10-24T01:39:44.390Z,6.22
2022-10-24T01:40:51.926Z,4.50
2022-10-24T01:41:56.425Z,4.88
2022-10-24T01:43:03.180Z,5.60
2022-10-24T01:44:12.720Z,4.88
2022-10-24T01:45:25.245Z,4.75
2022-10-24T01:46:30.474Z,7.35
2022-10-24T01:47:44.113Z,3.67
2022-10-24T01:48:54.660Z,5.03
2022-10-24T01:50:04.084Z,5.88
2022-10-24T01:51:08.029Z,7.18
2022-10-24T01:54:28.289Z,6.15
2022-10-24T01:55:32.702Z,5.50
2022-10-24T01:56:34.701Z,6.72
2022-10-24T01:57:36.466Z,7.18
2022-10-24T01:58:38.182Z,6.47
2022-10-24T01:59:43.771Z,9.00
2022-10-24T02:00:48.194Z,3.75
2022-10-24T02:01:50.085Z,6.07
2022-10-24T02:03:06.592Z,4.13
2022-10-24T02:04:11.992Z,4.50
2022-10-24T02:05:24.818Z,6.53
2022-10-24T02:06:34.974Z,5.45
2022-10-24T02:07:39.100Z,6.90
2022-10-24T02:08:46.974Z,6.05
2022-10-24T02:09:56.354Z,9.82
2022-10-24T02:11:01.294Z,7.35
2022-10-24T02:12:04.789Z,5.75
2022-10-24T02:13:12.606Z,3.22
2022-10-24T02:14:38.585Z,7.00
2022-10-24T02:15:49.337Z,4.40
2022-10-24T02:16:52.067Z,3.83
2022-10-24T02:17:55.014Z,4.38
2022-10-24T02:18:58.360Z,6.13
2022-10-24T02:20:00.729Z,4.35
2022-10-24T02:21:20.194Z,4.65
2022-10-24T02:22:26.439Z,4.68
2022-10-24T02:23:57.796Z,5.85
2022-10-24T02:25:19.445Z,5.38
2022-10-24T02:26:46.383Z,5.13
2022-10-24T02:27:55.700Z,5.90
2022-10-24T02:29:01.794Z,5.70
2022-10-24T02:30:15.977Z,8.85
2022-10-24T02:31:22.152Z,5.40
2022-10-24T02:32:35.335Z,4.75
2022-10-24T02:33:41.079Z,5.07
2022-10-24T02:34:44.013Z,4.25
2022-10-24T02:35:48.009Z,8.77
2022-10-24T02:36:54.026Z,3.90
2022-10-24T02:38:03.649Z,3.38
2022-10-24T02:39:09.248Z,5.28
2022-10-24T02:40:13.058Z,4.05
2022-10-24T02:41:26.011Z,5.45
2022-10-24T02:43:38.953Z,4.22
2022-10-24T02:44:42.622Z,4.88
2022-10-24T02:45:45.190Z,4.07
2022-10-24T02:46:48.305Z,5.40
2022-10-24T02:47:52.712Z,4.65
2022-10-24T02:49:00.132Z,4.65
2022-10-24T02:50:02.498Z,3.10
2022-10-24T02:51:05.669Z,4.65
2022-10-24T02:52:07.813Z,4.32
2022-10-24T02:53:13.672Z,7.65
2022-10-24T02:54:15.948Z,4.28
2022-10-24T02:55:17.730Z,4.53
2022-10-24T02:56:19.694Z,4.68
2022-10-24T02:57:22.036Z,5.50
2022-10-24T02:58:23.716Z,5.00
2022-10-24T02:59:25.523Z,3.97
2022-10-24T03:00:27.283Z,4.53
2022-10-24T03:01:29.117Z,4.78
2022-10-24T03:02:30.913Z,4.60
2022-10-24T03:03:32.615Z,5.28
2022-10-24T03:04:34.373Z,5.53
2022-10-24T03:05:36.084Z,4.32
2022-10-24T03:06:37.768Z,5.28
2022-10-24T03:07:39.451Z,3.63
2022-10-24T03:08:41.331Z,3.00
2022-10-24T03:09:43.090Z,3.88
2022-10-24T03:10:44.802Z,5.18
2022-10-24T03:11:46.573Z,3.30
2022-10-24T03:12:48.261Z,4.35
2022-10-24T03:13:49.987Z,3.67
2022-10-24T03:14:51.844Z,4.70
2022-10-24T03:15:53.648Z,5.53
2022-10-24T03:16:55.432Z,6.90
2022-10-24T03:17:57.121Z,7.30
2022-10-24T03:18:58.869Z,3.47
2022-10-24T03:20:00.580Z,4.82
2022-10-24T03:21:02.342Z,4.70
2022-10-24T03:22:04.326Z,5.55
2022-10-24T03:23:06.308Z,3.28
2022-10-24T03:25:15.553Z,6.05
2022-10-24T03:26:17.270Z,5.30
2022-10-24T03:27:19.045Z,5.07
2022-10-24T03:28:20.793Z,3.85
2022-10-24T03:29:22.518Z,5.85
2022-10-24T03:30:24.343Z,6.55
2022-10-24T03:31:26.243Z,4.32
2022-10-24T03:32:28.330Z,3.75
2022-10-24T03:33:30.063Z,3.35
2022-10-24T03:34:31.758Z,4.63
2022-10-24T03:35:33.502Z,7.35
2022-10-24T03:36:35.262Z,4.07
2022-10-24T03:37:36.981Z,5.50
2022-10-24T03:38:38.782Z,5.93
2022-10-24T03:39:40.481Z,7.22
2022-10-24T03:40:42.236Z,7.15
2022-10-24T03:41:43.922Z,8.57
2022-10-24T03:42:45.939Z,9.93
2022-10-24T03:43:47.892Z,17.83
2022-10-24T03:44:49.617Z,8.75
2022-10-24T03:45:51.367Z,6.43
2022-10-24T03:46:53.185Z,6.28
2022-10-24T03:47:54.875Z,10.00
2022-10-24T03:48:56.607Z,6.30
2022-10-24T03:49:58.365Z,8.15
2022-10-24T03:51:00.131Z,7.03
2022-10-24T03:52:01.817Z,7.38
2022-10-24T03:53:04.816Z,7.22
2022-10-24T03:54:06.557Z,6.80
2022-10-24T03:55:08.702Z,6.18
2022-10-24T03:56:10.648Z,10.73
2022-10-24T03:57:12.530Z,5.57
2022-10-24T03:58:14.272Z,7.57
2022-10-24T03:59:16.257Z,6.55
2022-10-24T04:00:19.401Z,5.55
2022-10-24T04:01:21.991Z,8.60
2022-10-24T04:02:23.840Z,9.25
2022-10-24T04:03:26.647Z,13.82
2022-10-24T04:04:28.397Z,6.63
2022-10-24T04:05:30.199Z,21.48
2022-10-24T04:06:35.507Z,7.63
2022-10-24T04:07:38.420Z,7.40
2022-10-24T04:08:40.190Z,7.18
2022-10-24T04:09:41.931Z,8.25
2022-10-24T04:10:43.634Z,13.35
2022-10-24T04:11:45.376Z,35.30
2022-10-24T04:12:47.155Z,5.72
2022-10-24T04:13:48.977Z,8.20
2022-10-24T04:14:51.253Z,6.68
2022-10-24T04:15:53.092Z,5.65
2022-10-24T04:16:54.754Z,5.85
2022-10-24T04:17:56.590Z,5.25
2022-10-24T04:18:58.279Z,9.02
2022-10-24T04:19:59.994Z,9.18
2022-10-24T04:21:02.053Z,5.57
2022-10-24T04:22:03.801Z,7.80
2022-10-24T04:23:05.602Z,14.70
2022-10-24T04:24:07.463Z,12.98
2022-10-24T04:25:09.393Z,9.38
2022-10-24T04:26:13.966Z,14.20
2022-10-24T04:27:15.647Z,13.00
2022-10-24T04:28:17.405Z,8.55
2022-10-24T04:29:19.100Z,15.20
2022-10-24T04:30:20.796Z,18.00
2022-10-24T04:31:23.713Z,8.07
2022-10-24T04:32:25.575Z,10.93
2022-10-24T04:33:27.262Z,13.38
2022-10-24T04:34:29.028Z,7.97
2022-10-24T04:35:30.763Z,8.15
2022-10-24T04:36:33.912Z,5.72
2022-10-24T04:37:35.657Z,6.28
2022-10-24T04:38:37.501Z,7.47
2022-10-24T04:39:39.336Z,17.10
2022-10-24T04:40:41.077Z,15.57
2022-10-24T04:41:42.839Z,18.17
2022-10-24T04:42:44.881Z,10.27
2022-10-24T04:43:46.750Z,10.45
2022-10-24T04:44:48.514Z,7.82
2022-10-24T04:45:50.866Z,8.35
2022-10-24T04:46:52.628Z,8.20
2022-10-24T04:47:54.316Z,12.63
2022-10-24T04:48:56.081Z,9.88
2022-10-24T04:49:57.777Z,9.05
2022-10-24T04:50:59.684Z,11.52
2022-10-24T04:52:01.384Z,9.77
2022-10-24T04:53:03.450Z,11.13
2022-10-24T04:54:06.442Z,20.63
2022-10-24T04:55:08.828Z,12.57
2022-10-24T04:56:10.582Z,11.30
2022-10-24T04:57:12.323Z,10.07
2022-10-24T04:58:14.056Z,7.88
2022-10-24T04:59:15.752Z,10.55
2022-10-24T05:00:17.571Z,9.70
2022-10-24T05:01:19.355Z,12.70
2022-10-24T05:02:21.143Z,7.28
2022-10-24T05:03:23.419Z,6.88
2022-10-24T05:04:25.123Z,6.78
2022-10-24T05:05:27.054Z,11.82
2022-10-24T05:06:28.731Z,9.75
2022-10-24T05:07:30.453Z,11.80
2022-10-24T05:08:32.206Z,7.78
2022-10-24T05:09:34.097Z,10.25
2022-10-24T05:10:35.853Z,10.07
2022-10-24T05:11:37.564Z,11.05
2022-10-24T05:12:39.713Z,16.75
2022-10-24T05:13:42.419Z,13.65
2022-10-24T05:14:47.253Z,19.42
2022-10-24T05:15:48.936Z,14.93
2022-10-24T05:16:50.940Z,12.45
2022-10-24T05:17:52.633Z,16.02
2022-10-24T05:18:54.360Z,15.90
2022-10-24T05:19:56.089Z,15.55
2022-10-24T05:20:59.220Z,16.80
2022-10-24T05:22:00.915Z,25.63
2022-10-24T05:23:02.675Z,18.85
2022-10-24T05:24:04.400Z,18.55
2022-10-24T05:25:06.842Z,14.13
2022-10-24T05:26:08.875Z,13.55
2022-10-24T05:27:10.570Z,18.42
2022-10-24T05:28:12.397Z,16.65
2022-10-24T05:29:14.092Z,12.63
2022-10-24T05:30:15.891Z,17.80
2022-10-24T05:31:17.675Z,17.13
2022-10-24T05:32:20.917Z,19.77
2022-10-24T05:33:23.686Z,19.25
2022-10-24T05:34:26.928Z,18.88
2022-10-24T05:35:29.068Z,19.52
2022-10-24T05:36:30.779Z,14.85
2022-10-24T05:37:32.519Z,21.77
2022-10-24T05:38:34.309Z,27.13
2022-10-24T05:39:36.305Z,20.48
2022-10-24T05:40:38.034Z,17.38
2022-10-24T05:41:43.382Z,20.20
2022-10-24T05:42:48.921Z,18.45
2022-10-24T05:43:50.623Z,15.70
2022-10-24T05:44:52.342Z,21.75
2022-10-24T05:45:54.095Z,29.38
2022-10-24T05:46:55.813Z,14.90
2022-10-24T05:47:57.550Z,17.23
2022-10-24T05:48:59.307Z,18.42
2022-10-24T05:50:00.985Z,17.90
2022-10-24T05:51:02.734Z,11.98
2022-10-24T05:52:05.030Z,18.05
2022-10-24T05:53:08.787Z,19.08
2022-10-24T05:55:18.463Z,40.63
2022-10-24T05:56:20.314Z,45.80
2022-10-24T05:57:22.082Z,51.70
2022-10-24T05:58:24.979Z,97.53
2022-10-24T05:59:26.736Z,96.57
2022-10-24T06:00:28.532Z,73.25
2022-10-24T06:01:31.086Z,48.45
2022-10-24T06:02:33.077Z,52.10
2022-10-24T06:03:35.115Z,33.25
2022-10-24T06:04:36.834Z,29.90
2022-10-24T06:05:38.616Z,23.23
2022-10-24T06:06:42.208Z,26.08
2022-10-24T06:07:44.307Z,26.77
2022-10-24T06:08:46.432Z,26.92
2022-10-24T06:09:48.140Z,21.77
2022-10-24T06:10:51.409Z,18.08
2022-10-24T06:11:53.153Z,18.92
2022-10-24T06:12:54.958Z,23.75
2022-10-24T06:13:56.815Z,27.27
2022-10-24T06:15:00.082Z,20.10
2022-10-24T06:16:01.793Z,15.63
2022-10-24T06:17:05.937Z,13.30
2022-10-24T06:18:07.748Z,17.63
2022-10-24T06:19:09.609Z,16.05
2022-10-24T06:20:11.458Z,10.45
2022-10-24T06:21:13.666Z,6.15
2022-10-24T06:22:15.344Z,10.07
2022-10-24T06:23:17.078Z,10.77
2022-10-24T06:24:18.727Z,8.32
2022-10-24T06:25:20.480Z,8.55
2022-10-24T06:26:24.072Z,12.27
2022-10-24T06:27:26.027Z,6.90
2022-10-24T06:28:27.767Z,8.40
2022-10-24T06:29:29.422Z,8.10
2022-10-24T06:30:31.172Z,6.28
2022-10-24T06:31:35.669Z,11.07
2022-10-24T06:32:39.575Z,9.02
2022-10-24T06:33:43.836Z,5.78
2022-10-24T06:34:45.535Z,7.07
2022-10-24T06:35:47.660Z,5.15
2022-10-24T06:36:49.355Z,8.07
2022-10-24T06:37:51.537Z,8.07
2022-10-24T06:38:54.656Z,10.50
2022-10-24T06:39:56.292Z,8.80
2022-10-24T06:40:57.993Z,11.30
2022-10-24T06:42:01.109Z,13.73
2022-10-24T06:43:02.732Z,12.10
2022-10-24T06:44:07.706Z,9.52
2022-10-24T06:45:12.828Z,11.32
2022-10-24T06:46:17.657Z,9.88
2022-10-24T06:47:19.347Z,9.80
2022-10-24T06:48:21.014Z,7.13
2022-10-24T06:49:22.739Z,6.15
2022-10-24T06:50:24.609Z,7.82
2022-10-24T06:51:26.398Z,11.48
2022-10-24T06:52:28.434Z,10.25
2022-10-24T06:53:30.329Z,8.00
2022-10-24T06:54:33.753Z,14.38
2022-10-24T06:55:38.256Z,19.80
2022-10-24T06:56:39.955Z,15.77
2022-10-24T06:57:41.883Z,11.57
2022-10-24T06:58:44.426Z,12.80
2022-10-24T06:59:46.106Z,7.18
2022-10-24T07:00:47.833Z,14.07
2022-10-24T07:01:49.593Z,12.10
2022-10-24T07:02:51.381Z,10.93
2022-10-24T07:03:53.962Z,5.15
2022-10-24T07:04:57.995Z,8.75
2022-10-24T07:05:59.729Z,7.00
2022-10-24T07:07:01.403Z,7.10
2022-10-24T07:08:03.099Z,10.38
2022-10-24T07:09:05.983Z,9.65
2022-10-24T07:10:08.641Z,9.95
2022-10-24T07:11:10.387Z,6.78
2022-10-24T07:12:12.387Z,9.23
2022-10-24T07:13:14.141Z,8.10
2022-10-24T07:14:15.895Z,11.13
2022-10-24T07:15:17.637Z,7.90
2022-10-24T07:16:19.557Z,8.07
2022-10-24T07:17:21.269Z,12.30
2022-10-24T07:18:22.952Z,6.93
2022-10-24T07:19:24.613Z,6.72
2022-10-24T07:20:26.601Z,5.70
2022-10-24T07:21:31.158Z,6.10
2022-10-24T07:22:33.414Z,7.55
2022-10-24T07:23:35.591Z,7.20
2022-10-24T07:24:37.326Z,13.93
2022-10-24T07:25:40.036Z,5.07
2022-10-24T07:26:41.740Z,7.00
2022-10-24T07:27:43.480Z,8.27
2022-10-24T07:28:46.769Z,8.45
2022-10-24T07:29:48.469Z,6.45
2022-10-24T07:30:50.119Z,8.68
2022-10-24T07:31:51.819Z,6.18
2022-10-24T07:32:53.561Z,8.35
2022-10-24T07:33:55.691Z,5.28
2022-10-24T07:34:57.354Z,9.27
2022-10-24T07:35:59.559Z,7.50
2022-10-24T07:37:01.205Z,8.82
2022-10-24T07:38:02.844Z,7.70
2022-10-24T07:39:04.572Z,7.15
2022-10-24T07:40:06.751Z,11.25
2022-10-24T07:41:08.398Z,10.43
2022-10-24T07:42:12.921Z,5.28
2022-10-24T07:43:15.180Z,5.50
2022-10-24T07:44:16.831Z,4.20
2022-10-24T07:45:18.619Z,5.75
2022-10-24T07:46:22.439Z,8.82
2022-10-24T07:47:24.184Z,7.53
2022-10-24T07:48:25.921Z,7.70
2022-10-24T07:49:30.171Z,5.47
2022-10-24T07:50:41.336Z,5.57
2022-10-24T07:51:43.556Z,6.97
2022-10-24T07:52:45.252Z,8.07
2022-10-24T07:53:47.419Z,10.35
2022-10-24T07:54:49.208Z,15.23
2022-10-24T07:55:50.852Z,7.40
2022-10-24T07:56:54.104Z,7.43
2022-10-24T07:57:56.002Z,6.90
2022-10-24T07:58:58.408Z,10.63
2022-10-24T08:00:00.144Z,8.05
2022-10-24T08:01:09.968Z,4.72
2022-10-24T08:02:12.900Z,3.95
2022-10-24T08:03:14.683Z,9.55
2022-10-24T08:04:16.357Z,8.05
2022-10-24T08:05:20.723Z,4.07
2022-10-24T08:06:30.398Z,7.82
2022-10-24T08:07:32.086Z,5.03
2022-10-24T08:08:37.816Z,4.95
2022-10-24T08:09:46.160Z,7.18
2022-10-24T08:10:47.907Z,7.45
2022-10-24T08:11:49.591Z,10.85
2022-10-24T08:12:51.239Z,6.22
2022-10-24T08:13:54.592Z,6.18
2022-10-24T08:14:56.975Z,6.32
2022-10-24T08:15:58.683Z,3.47
2022-10-24T08:17:00.392Z,4.50
2022-10-24T08:18:02.043Z,7.93
2022-10-24T08:19:04.091Z,5.05
2022-10-24T08:20:08.004Z,4.50
2022-10-24T08:21:13.058Z,6.35
2022-10-24T08:22:14.797Z,6.53
2022-10-24T08:23:16.436Z,4.50
2022-10-24T08:24:18.238Z,8.30
2022-10-24T08:25:19.999Z,4.30
2022-10-24T08:26:23.759Z,5.13
2022-10-24T08:27:25.390Z,4.70
2022-10-24T08:28:27.087Z,6.97
2022-10-24T08:29:28.948Z,5.50
2022-10-24T08:30:30.642Z,5.30
2022-10-24T08:31:32.454Z,7.22
2022-10-24T08:32:35.771Z,7.95
2022-10-24T08:33:37.743Z,4.93
2022-10-24T08:34:39.459Z,6.32
2022-10-24T08:35:43.728Z,11.27
2022-10-24T08:36:46.289Z,3.47
2022-10-24T08:37:47.949Z,6.47
2022-10-24T08:38:50.108Z,4.25
2022-10-24T08:39:55.741Z,5.65
2022-10-24T08:40:58.491Z,4.35
2022-10-24T08:42:05.472Z,6.47
2022-10-24T08:43:07.290Z,6.82
2022-10-24T08:44:40.287Z,8.85
2022-10-24T08:46:03.926Z,4.45
2022-10-24T08:47:10.054Z,6.63
2022-10-24T08:48:21.630Z,4.38
2022-10-24T08:49:50.560Z,4.60
2022-10-24T08:50:57.517Z,4.70
2022-10-24T08:52:03.816Z,3.25
2022-10-24T08:53:14.446Z,3.25
2022-10-24T08:54:22.897Z,4.45
2022-10-24T08:55:49.127Z,7.82
2022-10-24T08:56:55.108Z,4.47
2022-10-24T08:58:00.040Z,5.38
2022-10-24T08:59:03.353Z,4.30
2022-10-24T09:00:15.557Z,4.57
2022-10-24T09:01:33.920Z,4.55
2022-10-24T09:02:39.893Z,10.10
2022-10-24T09:03:55.940Z,4.68
2022-10-24T09:05:23.712Z,4.95
2022-10-24T09:06:28.896Z,4.72
2022-10-24T09:07:30.648Z,4.50
2022-10-24T09:08:35.283Z,2.97
2022-10-24T09:09:42.987Z,3.28
2022-10-24T09:11:03.778Z,5.93
2022-10-24T09:12:11.280Z,9.30
2022-10-24T09:13:15.285Z,7.18
2022-10-24T09:14:19.922Z,4.93
2022-10-24T09:15:30.326Z,8.80
2022-10-24T09:16:32.024Z,6.25
2022-10-24T09:17:37.262Z,6.63
2022-10-24T09:18:42.027Z,6.47
2022-10-24T09:19:57.312Z,8.13
2022-10-24T09:21:00.429Z,6.60
2022-10-24T09:22:02.987Z,6.90
2022-10-24T09:23:06.465Z,4.95
2022-10-24T09:24:48.934Z,5.55
2022-10-24T09:25:56.909Z,7.55
2022-10-24T09:27:00.601Z,5.32
2022-10-24T09:28:04.651Z,7.97
2022-10-24T09:29:06.324Z,4.93
2022-10-24T09:30:19.820Z,6.60
2022-10-24T09:31:24.946Z,11.65
2022-10-24T09:32:32.856Z,7.50
2022-10-24T09:33:36.469Z,8.30
2022-10-24T09:34:38.182Z,5.93
2022-10-24T09:35:40.237Z,11.07
2022-10-24T09:36:42.585Z,5.00
2022-10-24T09:37:55.296Z,7.78
2022-10-24T09:38:57.056Z,4.75
2022-10-24T09:40:09.139Z,7.13
2022-10-24T09:41:13.891Z,4.28
2022-10-24T09:42:22.786Z,7.40
2022-10-24T09:43:46.993Z,16.90
2022-10-24T09:44:48.684Z,6.85
2022-10-24T09:46:11.134Z,6.47
2022-10-24T09:47:42.858Z,10.43
2022-10-24T09:49:02.199Z,9.80
2022-10-24T09:50:04.183Z,6.57
2022-10-24T09:51:07.885Z,9.65
2022-10-24T09:52:28.661Z,7.13
2022-10-24T09:53:34.534Z,11.30
2022-10-24T09:54:37.185Z,9.18
2022-10-24T09:55:46.902Z,3.95
2022-10-24T09:57:05.338Z,6.97
2022-10-24T09:58:19.620Z,11.10
2022-10-24T10:00:03.587Z,5.95
2022-10-24T10:01:06.746Z,7.88
2022-10-24T10:02:12.992Z,6.95
2022-10-24T10:03:23.958Z,5.40
2022-10-24T10:04:25.968Z,7.22
2022-10-24T10:05:30.714Z,10.38
2022-10-24T10:06:33.859Z,5.85
2022-10-24T10:07:41.687Z,7.80
2022-10-24T10:08:50.385Z,3.78
2022-10-24T10:09:57.694Z,5.03
2022-10-24T10:11:01.790Z,7.70
2022-10-24T10:12:03.630Z,3.47
2022-10-24T10:13:24.335Z,8.05
2022-10-24T10:14:29.548Z,5.47
2022-10-24T10:16:04.767Z,4.45
2022-10-24T10:17:07.557Z,5.45
2022-10-24T10:18:24.512Z,4.20
2022-10-24T10:19:26.488Z,5.75
2022-10-24T10:20:39.792Z,3.90
2022-10-24T10:21:58.367Z,4.50
2022-10-24T10:23:18.139Z,4.70
2022-10-24T10:24:25.899Z,4.28
2022-10-24T10:25:32.624Z,6.78
2022-10-24T10:26:45.611Z,7.90
2022-10-24T10:27:51.304Z,6.82
2022-10-24T10:28:59.359Z,6.75
2022-10-24T10:30:16.345Z,5.32
2022-10-24T10:31:21.883Z,9.43
2022-10-24T10:32:35.496Z,4.82
2022-10-24T10:34:05.763Z,5.50
2022-10-24T10:35:29.916Z,5.88
2022-10-24T10:36:40.987Z,6.90
2022-10-24T10:37:51.190Z,7.82
2022-10-24T10:39:18.704Z,7.20
2022-10-24T10:40:44.581Z,6.53
2022-10-24T10:42:14.769Z,8.90
2022-10-24T10:43:46.349Z,6.03
2022-10-24T10:45:17.409Z,5.47
2022-10-24T10:46:44.154Z,5.35
2022-10-24T10:48:30.008Z,7.53
2022-10-24T10:49:37.775Z,7.53
2022-10-24T10:50:47.169Z,6.30
2022-10-24T10:51:55.126Z,6.90
2022-10-24T10:53:11.617Z,7.57
2022-10-24T10:54:40.683Z,6.30
2022-10-24T10:56:08.150Z,8.68
2022-10-24T10:57:28.899Z,10.38
2022-10-24T10:59:09.677Z,5.80
2022-10-24T11:00:33.681Z,7.68
2022-10-24T11:01:58.227Z,6.85
2022-10-24T11:03:26.030Z,12.10
2022-10-24T11:04:37.405Z,12.70
2022-10-24T11:06:13.213Z,10.15
2022-10-24T11:07:23.692Z,8.82
2022-10-24T11:08:39.805Z,5.85
2022-10-24T11:09:45.373Z,5.93
2022-10-24T11:10:53.485Z,10.73
2022-10-24T11:12:14.148Z,6.97
2022-10-24T11:13:27.686Z,11.52
2022-10-24T11:15:13.312Z,11.55
2022-10-24T11:16:22.199Z,10.25
2022-10-24T11:17:28.140Z,13.65
2022-10-24T11:18:37.721Z,8.10
2022-10-24T11:19:57.886Z,7.82
2022-10-24T11:21:11.044Z,7.05
2022-10-24T11:22:21.066Z,6.72
2022-10-24T11:23:45.052Z,10.17
2022-10-24T11:24:56.543Z,7.32
2022-10-24T11:26:04.470Z,7.82
2022-10-24T11:27:21.726Z,7.50
2022-10-24T11:28:40.855Z,11.80
2022-10-24T11:29:51.172Z,6.63
2022-10-24T11:31:08.006Z,8.95
2022-10-24T11:32:16.872Z,9.57
2022-10-24T11:33:24.163Z,8.50
2022-10-24T11:34:35.709Z,7.63
2022-10-24T11:35:44.899Z,10.88
2022-10-24T11:36:56.016Z,8.20
2022-10-24T11:38:14.608Z,10.63
2022-10-24T11:39:25.807Z,9.23
2022-10-24T11:40:30.417Z,4.97
2022-10-24T11:41:52.580Z,7.25
2022-10-24T11:43:13.097Z,8.77
2022-10-24T11:44:38.255Z,13.63
2022-10-24T11:45:53.414Z,10.43
2022-10-24T11:47:52.532Z,6.07
2022-10-24T11:48:57.491Z,11.10
2022-10-24T11:50:26.019Z,7.90
2022-10-24T11:51:37.723Z,6.20
2022-10-24T11:52:45.120Z,8.73
2022-10-24T11:53:52.566Z,13.90
2022-10-24T11:55:06.197Z,10.15
2022-10-24T11:56:12.165Z,9.52
2022-10-24T11:57:17.991Z,9.43
2022-10-24T11:58:23.388Z,14.23
2022-10-24T11:59:25.766Z,17.65
2022-10-24T12:00:33.601Z,11.32
2022-10-24T12:02:00.226Z,10.75
2022-10-24T12:03:04.645Z,9.13
2022-10-24T12:04:24.584Z,15.48
2022-10-24T12:05:48.446Z,9.82
2022-10-24T12:07:09.397Z,14.45
2022-10-24T12:08:28.979Z,7.35
2022-10-24T12:09:49.163Z,10.20
2022-10-24T12:10:56.556Z,14.48
2022-10-24T12:12:11.429Z,7.40
2022-10-24T12:13:56.962Z,6.13
2022-10-24T12:15:04.365Z,11.45
2022-10-24T12:16:29.124Z,10.73
2022-10-24T12:17:47.724Z,13.77
2022-10-24T12:18:56.611Z,10.75
2022-10-24T12:20:00.819Z,7.80
2022-10-24T12:21:10.686Z,10.00
2022-10-24T12:22:27.838Z,12.43
2022-10-24T12:23:31.531Z,12.65
2022-10-24T12:24:39.069Z,11.80
2022-10-24T12:25:45.669Z,12.10
2022-10-24T12:27:00.133Z,10.63
2022-10-24T12:28:03.428Z,7.78
2022-10-24T12:29:07.459Z,12.90
2022-10-24T12:30:09.315Z,15.00
2022-10-24T12:31:14.860Z,8.63
2022-10-24T12:32:38.832Z,12.15
2022-10-24T12:33:41.505Z,9.10
2022-10-24T12:34:49.233Z,11.40
2022-10-24T12:35:58.795Z,12.55
2022-10-24T12:37:19.048Z,12.35
2022-10-24T12:38:29.883Z,12.43
2022-10-24T12:39:56.104Z,9.50
2022-10-24T12:41:06.874Z,13.77
2022-10-24T12:42:20.596Z,12.30
2022-10-24T12:43:37.069Z,12.55
2022-10-24T12:44:41.368Z,12.02
2022-10-24T12:45:43.193Z,9.65
2022-10-24T12:46:44.843Z,8.27
2022-10-24T12:49:01.057Z,9.25
2022-10-24T12:50:24.486Z,9.75
2022-10-24T12:51:39.095Z,10.93
2022-10-24T12:52:46.803Z,16.77
2022-10-24T12:54:05.950Z,11.98
2022-10-24T12:55:39.342Z,9.43
2022-10-24T12:56:53.945Z,11.57
2022-10-24T12:57:56.646Z,9.48
2022-10-24T12:59:03.241Z,8.30
2022-10-24T13:00:23.919Z,12.20
2022-10-24T13:01:31.653Z,11.48
2022-10-24T13:02:33.409Z,11.15
2022-10-24T13:03:59.271Z,10.00
2022-10-24T13:05:09.130Z,10.45
2022-10-24T13:06:27.227Z,12.82
2022-10-24T13:07:40.633Z,14.38
2022-10-24T13:09:07.124Z,11.60
2022-10-24T13:10:17.410Z,13.15
2022-10-24T13:11:54.249Z,14.05
2022-10-24T13:13:14.769Z,13.70
2022-10-24T13:14:16.372Z,11.07
2022-10-24T13:15:23.897Z,9.30
2022-10-24T13:16:30.970Z,9.55
2022-10-24T13:17:38.211Z,12.73
2022-10-24T13:18:58.429Z,13.43
2022-10-24T13:20:25.737Z,16.85
2022-10-24T13:22:37.821Z,8.38
2022-10-24T13:23:39.812Z,15.02
2022-10-24T13:24:41.627Z,16.13
2022-10-24T13:25:44.430Z,10.55
2022-10-24T13:27:12.520Z,11.20
2022-10-24T13:28:22.422Z,9.35
2022-10-24T13:29:24.084Z,11.52
2022-10-24T13:30:27.186Z,12.38
2022-10-24T13:31:28.808Z,15.25
2022-10-24T13:32:36.087Z,26.05
2022-10-24T13:33:46.129Z,13.45
2022-10-24T13:34:50.789Z,10.93
2022-10-24T13:35:54.303Z,10.75
2022-10-24T13:37:01.842Z,14.95
2022-10-24T13:38:07.717Z,13.48
2022-10-24T13:39:18.506Z,16.63
2022-10-24T13:40:33.413Z,11.40
2022-10-24T13:41:42.218Z,16.23
2022-10-24T13:42:51.959Z,11.50
2022-10-24T13:43:58.938Z,15.88
2022-10-24T13:45:19.261Z,14.15
2022-10-24T13:47:54.779Z,17.25
2022-10-24T13:48:58.281Z,9.52
2022-10-24T13:50:15.890Z,11.43
2022-10-24T13:51:25.557Z,12.57
2022-10-24T13:52:35.038Z,14.32
2022-10-24T13:53:47.890Z,12.07
2022-10-24T13:54:57.586Z,17.30
2022-10-24T13:56:04.418Z,16.92
2022-10-24T13:57:27.532Z,12.15
2022-10-24T13:58:40.944Z,11.43
2022-10-24T13:59:53.093Z,14.48
2022-10-24T14:01:01.653Z,17.20
2022-10-24T14:02:18.144Z,16.52
2022-10-24T14:03:25.892Z,10.60
2022-10-24T14:04:28.544Z,8.48
2022-10-24T14:05:32.499Z,14.13
2022-10-24T14:06:34.372Z,9.75
2022-10-24T14:07:36.097Z,10.93
2022-10-24T14:08:48.176Z,13.98
2022-10-24T14:10:00.234Z,11.75
2022-10-24T14:11:08.071Z,16.20
2022-10-24T14:12:24.412Z,16.17
2022-10-24T14:13:28.578Z,13.50
2022-10-24T14:14:37.664Z,15.80
2022-10-24T14:15:50.573Z,10.23
2022-10-24T14:17:23.570Z,12.27
2022-10-24T14:18:26.093Z,16.48
2022-10-24T14:19:31.737Z,15.90
2022-10-24T14:20:37.012Z,22.08
2022-10-24T14:21:45.104Z,12.85
2022-10-24T14:22:47.443Z,20.77
2022-10-24T14:24:01.753Z,14.13
2022-10-24T14:25:03.722Z,14.43
2022-10-24T14:26:24.217Z,14.02
2022-10-24T14:27:26.255Z,13.63
2022-10-24T14:28:34.655Z,14.38
2022-10-24T14:29:36.333Z,15.70
2022-10-24T14:30:38.018Z,15.98
2022-10-24T14:31:39.978Z,17.90
2022-10-24T14:32:41.737Z,17.95
2022-10-24T14:33:49.475Z,14.35
2022-10-24T14:34:53.191Z,22.50
2022-10-24T14:35:58.142Z,16.98
2022-10-24T14:37:03.554Z,20.05
2022-10-24T14:38:09.532Z,15.60
2022-10-24T14:39:24.111Z,21.10
2022-10-24T14:40:26.061Z,16.67
2022-10-24T14:41:33.645Z,18.75
2022-10-24T14:42:35.511Z,15.90
2022-10-24T14:43:42.138Z,20.23
2022-10-24T14:44:46.481Z,15.18
2022-10-24T14:46:17.127Z,18.67
2022-10-24T14:47:24.465Z,27.70
2022-10-24T14:48:28.912Z,31.05
2022-10-24T14:49:33.493Z,34.03
2022-10-24T14:50:43.890Z,29.75
2022-10-24T14:51:47.722Z,42.03
2022-10-24T14:52:49.487Z,29.92
2022-10-24T14:53:51.523Z,29.73
2022-10-24T14:55:04.438Z,30.10